Cedar Park's Hourly Summary for Tuesday, May 15, 2018
Hour Temp
(f)
RH
(%)
Solar Rad.
(MJ/m2)
Rainfall
(in)
Wind
(mph)
5/15/2018 12:00 AM 78 68 0 0 3.59
5/15/2018 1:00 AM 77 73 0 0 4.58
5/15/2018 2:00 AM 75 78 0 0 6.05
5/15/2018 3:00 AM 74 83 0 0 6.05
5/15/2018 4:00 AM 73 87 0 0 5.43
5/15/2018 5:00 AM 72 89 0 0 4.25
5/15/2018 6:00 AM 71 90 0.01 0 2.54
5/15/2018 7:00 AM 71 90 0.29 0 0.83
5/15/2018 8:00 AM 73 86 0.56 0 2.28
5/15/2018 9:00 AM 75 80 1.55 0 3.94
5/15/2018 10:00 AM 79 71 2.32 0 3.94
5/15/2018 11:00 AM 81 61 2.85 0 3.75
5/15/2018 12:00 PM 83 55 3.12 0 3.75
5/15/2018 1:00 PM 83 55 3.12 0 4.66
5/15/2018 2:00 PM 83 55 2.32 0 4.66
5/15/2018 3:00 PM 85 52 2.39 0 5.01
5/15/2018 4:00 PM 86 52 2.22 0 5.26
5/15/2018 5:00 PM 86 52 2.22 0 5.26
5/15/2018 6:00 PM 85 50 1.61 0 5.17
5/15/2018 7:00 PM 85 51 0.4 0.02 4.2
5/15/2018 8:00 PM 78 76 0.01 0.03 5.44
5/15/2018 9:00 PM 73 78 0 0 5.44
5/15/2018 10:00 PM 73 84 0 0 0.88
5/15/2018 11:00 PM 72 84 0 0 2.76
Data Summary 77 70 24.99 0.05 4.16